Flugplatz Meppe Airport

Bericht für ETWM

vom 26.06. um 22:20 UTC

Wind 5 kt aus 350°

Sichtweite 10 km oder mehr

Temperatur 16.0°C

Taupunkt 12.0°C

Luftfeuchtigkeit 77%

Luftdruck 1027 hPa

ETWM 262220Z AUTO 35005KT 9999 // ////// 16/12 Q1027 ///
Keine Prognose (TAF) verfügbar.
Impressum